Time;durP1;ratioP1;P1;durP2;ratioP2;P2;SDS_P1;SDS_P2;PMS_P1;PMS_P2;Temp;Humidity;BMP_temperature;BMP_pressure;BME280_temperature;BME280_humidity;BME280_pressure;Samples;Min_cycle;Max_cycle;Signal;HPM_P1;HPM_P2
2021/03/06 00:00:06;;;;;;;60.05;29.60;;;-2.60;99.90;;;;;;5096025;28;20052;-68
2021/03/06 00:02:32;;;;;;;55.83;30.40;;;-2.60;99.90;;;;;;5096271;28;20103;-68
2021/03/06 00:04:58;;;;;;;52.72;28.85;;;-2.50;99.90;;;;;;5095873;28;20062;-69
2021/03/06 00:07:23;;;;;;;62.85;29.88;;;-2.60;99.90;;;;;;5096453;28;20031;-68
2021/03/06 00:09:49;;;;;;;53.83;30.70;;;-2.60;99.90;;;;;;5096350;28;20361;-69
2021/03/06 00:12:14;;;;;;;52.50;29.70;;;-2.60;99.90;;;;;;5096294;28;20473;-68
2021/03/06 00:14:40;;;;;;;56.42;31.88;;;-2.70;99.90;;;;;;5095582;28;20124;-68
2021/03/06 00:17:06;;;;;;;54.17;29.13;;;-2.70;99.90;;;;;;5096186;28;20043;-68
2021/03/06 00:19:31;;;;;;;55.80;31.23;;;-2.70;99.90;;;;;;5095608;28;20024;-68
2021/03/06 00:21:57;;;;;;;62.78;32.00;;;-2.70;99.90;;;;;;5095612;28;20020;-68
2021/03/06 00:24:23;;;;;;;56.38;29.92;;;-2.70;99.90;;;;;;5095528;28;20016;-68
2021/03/06 00:26:48;;;;;;;58.17;31.60;;;-2.70;99.90;;;;;;5096080;28;20028;-68
2021/03/06 00:29:14;;;;;;;62.97;32.17;;;-2.70;99.90;;;;;;5094478;28;20517;-68
2021/03/06 00:31:43;;;;;;;57.65;29.85;;;-2.70;99.90;;;;;;5095929;28;20492;-68
2021/03/06 00:34:09;;;;;;;59.78;30.50;;;-2.70;99.90;;;;;;5095317;28;20028;-68
2021/03/06 00:36:35;;;;;;;68.93;32.45;;;-2.70;99.90;;;;;;5095740;28;20373;-68
2021/03/06 00:39:00;;;;;;;62.75;32.85;;;-2.60;99.90;;;;;;5095195;28;20461;-68
2021/03/06 00:41:26;;;;;;;56.25;31.40;;;-2.50;99.90;;;;;;5095737;28;20056;-68
2021/03/06 00:43:52;;;;;;;60.20;31.40;;;-2.50;99.90;;;;;;5095731;28;20364;-68
2021/03/06 00:46:17;;;;;;;65.85;32.25;;;-2.50;99.90;;;;;;5095621;28;20036;-68
2021/03/06 00:48:43;;;;;;;74.03;33.88;;;-2.60;99.90;;;;;;5095573;28;20457;-68
2021/03/06 00:51:09;;;;;;;82.00;36.40;;;-2.70;99.90;;;;;;5095524;28;20020;-68
2021/03/06 00:53:35;;;;;;;75.85;34.92;;;-2.70;99.90;;;;;;5094074;28;20028;-68
2021/03/06 00:56:01;;;;;;;75.20;34.63;;;-2.70;99.90;;;;;;5095368;28;20024;-68
2021/03/06 00:58:26;;;;;;;64.38;32.53;;;-2.70;99.90;;;;;;5095081;28;20028;-68
2021/03/06 01:00:52;;;;;;;72.65;35.63;;;-2.80;99.90;;;;;;5093902;28;20060;-68
2021/03/06 01:03:18;;;;;;;63.17;33.13;;;-2.80;99.90;;;;;;5094761;28;20047;-68
2021/03/06 01:05:43;;;;;;;73.65;35.50;;;-2.80;99.90;;;;;;5095251;28;20085;-68
2021/03/06 01:08:09;;;;;;;74.60;33.50;;;-2.80;99.90;;;;;;5094638;28;20024;-68
2021/03/06 01:10:37;;;;;;;69.10;33.33;;;-2.80;99.90;;;;;;5095185;28;20028;-68
2021/03/06 01:13:04;;;;;;;70.18;33.90;;;-2.80;99.90;;;;;;5094881;28;20023;-68
2021/03/06 01:15:30;;;;;;;67.30;33.28;;;-2.90;99.90;;;;;;5093073;28;20059;-68
2021/03/06 01:17:56;;;;;;;73.65;34.75;;;-2.80;99.90;;;;;;5095028;28;20073;-68
2021/03/06 01:20:22;;;;;;;74.03;33.90;;;-2.90;99.90;;;;;;5094990;28;20020;-68
2021/03/06 01:22:48;;;;;;;65.40;31.20;;;-2.90;99.90;;;;;;5094664;28;20027;-68
2021/03/06 01:25:14;;;;;;;54.08;26.75;;;-2.90;99.90;;;;;;5094938;28;20461;-68
2021/03/06 01:27:40;;;;;;;53.53;26.08;;;-2.90;99.90;;;;;;5094356;28;20055;-68
2021/03/06 01:30:06;;;;;;;54.33;25.75;;;-3.00;99.90;;;;;;5094858;28;20038;-69
2021/03/06 01:32:32;;;;;;;50.05;26.17;;;-3.00;99.90;;;;;;5094568;28;20124;-68
2021/03/06 01:34:58;;;;;;;57.08;28.17;;;-3.00;99.90;;;;;;5094675;28;20097;-68
2021/03/06 01:37:23;;;;;;;53.95;26.45;;;-3.00;99.90;;;;;;5094721;28;20031;-68
2021/03/06 01:39:50;;;;;;;55.42;26.33;;;-3.00;99.90;;;;;;5094377;28;20020;-68
2021/03/06 01:42:17;;;;;;;52.92;26.00;;;-3.10;99.90;;;;;;5094353;28;20020;-68
2021/03/06 01:44:43;;;;;;;57.38;27.33;;;-3.10;99.90;;;;;;5093834;28;20514;-69
2021/03/06 01:47:09;;;;;;;56.40;27.45;;;-3.10;99.90;;;;;;5094340;28;20099;-68
2021/03/06 01:49:34;;;;;;;62.90;29.98;;;-3.20;99.90;;;;;;5094477;28;20039;-68
2021/03/06 01:52:00;;;;;;;57.05;28.83;;;-3.20;99.90;;;;;;5094406;28;20142;-68
2021/03/06 01:54:26;;;;;;;66.72;29.20;;;-3.20;99.90;;;;;;5094102;28;20412;-68
2021/03/06 01:56:53;;;;;;;57.72;26.70;;;-3.20;99.90;;;;;;5093146;28;20544;-69
2021/03/06 01:59:19;;;;;;;58.33;28.00;;;-3.20;99.90;;;;;;5094057;28;20530;-68
2021/03/06 02:01:45;;;;;;;61.67;28.85;;;-3.20;99.90;;;;;;5094305;28;20070;-68
2021/03/06 02:04:12;;;;;;;58.92;28.10;;;-3.20;99.90;;;;;;5093980;28;20020;-68
2021/03/06 02:06:37;;;;;;;53.17;26.17;;;-3.20;99.90;;;;;;5094241;28;20020;-69
2021/03/06 02:09:03;;;;;;;62.20;28.65;;;-3.30;99.90;;;;;;5094174;28;20074;-68
2021/03/06 02:11:42;;;;;;;57.25;28.35;;;-3.20;99.90;;;;;;5092698;28;20028;-68
2021/03/06 02:16:52;;;;;;;52.35;25.23;;;-3.30;99.90;;;;;;5112165;27;20344;-68
2021/03/06 02:19:50;;;;;;;55.22;26.40;;;-3.30;99.90;;;;;;5111962;28;20096;-68
2021/03/06 02:22:47;;;;;;;52.17;26.55;;;-3.30;99.90;;;;;;5111482;28;20034;-68
2021/03/06 02:25:47;;;;;;;49.53;24.80;;;-3.30;99.90;;;;;;5111251;28;20024;-68
2021/03/06 02:28:43;;;;;;;49.70;23.30;;;-3.40;99.90;;;;;;5111389;28;20122;-68
2021/03/06 02:31:12;;;;;;;53.22;24.67;;;-3.40;99.90;;;;;;5111000;28;20479;-68
2021/03/06 02:33:43;;;;;;;59.17;24.88;;;-3.40;99.90;;;;;;5111082;28;20031;-68
2021/03/06 02:36:11;;;;;;;51.60;25.02;;;-3.40;99.90;;;;;;5110341;28;20038;-68
2021/03/06 02:38:40;;;;;;;52.17;23.20;;;-3.40;99.90;;;;;;5111570;28;20077;-68
2021/03/06 02:41:07;;;;;;;46.05;21.08;;;-3.50;99.90;;;;;;5109692;28;20051;-67
2021/03/06 02:43:34;;;;;;;41.92;20.60;;;-3.50;99.90;;;;;;5111135;28;20418;-67
2021/03/06 02:46:04;;;;;;;43.35;21.92;;;-3.50;99.90;;;;;;5111119;28;20016;-68
2021/03/06 02:48:30;;;;;;;41.58;21.85;;;-3.50;99.90;;;;;;5111083;28;20020;-69
2021/03/06 02:50:56;;;;;;;42.08;18.45;;;-3.50;99.90;;;;;;5111050;28;20020;-68
2021/03/06 02:53:22;;;;;;;44.05;21.10;;;-3.50;99.90;;;;;;5111197;28;20026;-68
2021/03/06 02:55:47;;;;;;;35.22;19.23;;;-3.50;99.90;;;;;;5111097;28;20036;-68
2021/03/06 02:58:23;;;;;;;37.70;19.30;;;-3.50;99.90;;;;;;5111131;28;20020;-68
2021/03/06 03:01:04;;;;;;;38.22;19.83;;;-3.50;99.90;;;;;;5110824;28;20520;-68
2021/03/06 03:03:56;;;;;;;33.28;20.15;;;-3.50;99.90;;;;;;5111000;28;20467;-67
2021/03/06 03:06:30;;;;;;;38.95;20.58;;;-3.50;99.90;;;;;;5110339;28;20102;-67
2021/03/06 03:09:19;;;;;;;34.83;20.45;;;-3.60;99.90;;;;;;5110977;28;20035;-68
2021/03/06 03:12:11;;;;;;;36.47;20.05;;;-3.60;99.90;;;;;;5110346;28;20028;-68
2021/03/06 03:14:47;;;;;;;30.33;14.68;;;-3.50;99.90;;;;;;5110040;28;20429;-68
2021/03/06 03:17:20;;;;;;;37.97;20.10;;;-3.50;99.90;;;;;;5109251;28;20023;-68
2021/03/06 03:20:02;;;;;;;;;;;-3.50;99.90;;;;;;5111221;28;20536;-68
2021/03/06 03:22:35;;;;;;;34.63;19.60;;;-3.60;99.90;;;;;;5110142;28;19908;-67
2021/03/06 03:25:05;;;;;;;35.92;19.90;;;-3.50;99.90;;;;;;5110079;28;20085;-67
2021/03/06 03:27:31;;;;;;;37.63;21.30;;;-3.50;99.90;;;;;;5098738;28;20028;-68
2021/03/06 03:30:15;;;;;;;43.63;21.38;;;-3.60;99.90;;;;;;5097025;28;20059;-68
2021/03/06 03:32:43;;;;;;;38.70;20.10;;;-3.60;99.90;;;;;;5096361;28;20443;-68
2021/03/06 03:35:13;;;;;;;42.58;21.15;;;-3.70;99.90;;;;;;5096762;28;20027;-67
2021/03/06 03:37:41;;;;;;;38.15;21.40;;;-3.70;99.90;;;;;;5096836;28;20024;-67
2021/03/06 03:40:10;;;;;;;38.72;22.20;;;-3.70;99.90;;;;;;5096578;28;20020;-68
2021/03/06 03:42:36;;;;;;;36.53;21.13;;;-3.70;99.90;;;;;;5096756;28;20096;-68
2021/03/06 03:45:06;;;;;;;45.47;22.60;;;-3.70;99.90;;;;;;5095172;28;20058;-68
2021/03/06 03:47:32;;;;;;;42.10;23.13;;;-3.70;99.90;;;;;;5096670;28;20032;-68
2021/03/06 03:49:58;;;;;;;41.60;21.10;;;-3.80;99.90;;;;;;5096593;28;20051;-68
2021/03/06 03:52:24;;;;;;;41.08;22.65;;;-3.70;99.90;;;;;;5094717;28;20113;-68
2021/03/06 03:54:50;;;;;;;39.65;22.17;;;-3.70;99.90;;;;;;5094970;28;20028;-68
2021/03/06 03:57:16;;;;;;;39.17;22.17;;;-3.80;99.90;;;;;;5096485;28;20132;-68
2021/03/06 03:59:41;;;;;;;45.75;22.73;;;-3.90;99.90;;;;;;5094648;28;20487;-68
2021/03/06 04:02:07;;;;;;;46.55;24.27;;;-3.90;99.90;;;;;;5096338;28;20495;-68
2021/03/06 04:04:33;;;;;;;43.92;23.42;;;-3.80;99.90;;;;;;5096003;28;20073;-68
2021/03/06 04:07:01;;;;;;;42.88;23.83;;;-3.80;99.90;;;;;;5096002;28;20065;-68
2021/03/06 04:09:26;;;;;;;48.40;24.08;;;-3.90;99.90;;;;;;5096186;28;20016;-68
2021/03/06 04:11:53;;;;;;;46.28;23.65;;;-3.90;99.90;;;;;;5095912;28;20024;-68
2021/03/06 04:14:18;;;;;;;44.65;23.02;;;-3.90;99.90;;;;;;5094948;28;20026;-68
2021/03/06 04:16:45;;;;;;;44.10;24.65;;;-3.90;99.90;;;;;;5094544;28;20111;-68
2021/03/06 04:19:10;;;;;;;43.28;23.27;;;-3.90;99.90;;;;;;5096001;28;20024;-68
2021/03/06 04:21:36;;;;;;;39.00;22.63;;;-4.00;99.90;;;;;;5095686;28;20533;-68
2021/03/06 04:24:01;;;;;;;40.55;22.67;;;-4.00;99.90;;;;;;5095874;28;20024;-67
2021/03/06 04:26:27;;;;;;;47.45;24.50;;;-4.00;99.90;;;;;;5094422;28;20028;-68
2021/03/06 04:28:53;;;;;;;41.85;23.98;;;-4.00;99.90;;;;;;5095232;28;20385;-68
2021/03/06 04:31:18;;;;;;;46.75;23.92;;;-4.00;99.90;;;;;;5095825;28;20366;-68
2021/03/06 04:33:44;;;;;;;48.28;24.27;;;-4.00;99.90;;;;;;5095432;28;20410;-68
2021/03/06 04:36:11;;;;;;;43.28;24.50;;;-4.10;99.90;;;;;;5094461;28;20025;-68
2021/03/06 04:38:36;;;;;;;43.30;25.33;;;-4.10;99.90;;;;;;5094660;28;20054;-68
2021/03/06 04:41:02;;;;;;;40.38;23.45;;;-4.10;99.90;;;;;;5095307;28;20024;-68
2021/03/06 04:43:28;;;;;;;43.15;23.55;;;-4.10;99.90;;;;;;5095542;28;20031;-68
2021/03/06 04:45:54;;;;;;;41.92;22.80;;;-4.10;99.90;;;;;;5095464;28;20024;-68
2021/03/06 04:48:20;;;;;;;41.03;22.60;;;-4.10;99.90;;;;;;5095387;28;20098;-68
2021/03/06 04:50:46;;;;;;;45.25;24.42;;;-4.10;99.90;;;;;;5094056;28;20020;-68
2021/03/06 04:53:11;;;;;;;44.70;23.35;;;-4.10;99.90;;;;;;5094803;28;20568;-68
2021/03/06 04:55:37;;;;;;;41.95;22.77;;;-4.10;99.90;;;;;;5095231;28;20123;-68
2021/03/06 04:58:03;;;;;;;41.90;23.38;;;-4.10;99.90;;;;;;5094812;28;20081;-68
2021/03/06 05:00:28;;;;;;;35.47;21.92;;;-4.10;99.90;;;;;;5095183;28;20028;-68
2021/03/06 05:02:55;;;;;;;40.92;22.30;;;-4.10;99.90;;;;;;5095269;28;20016;-68
2021/03/06 05:05:20;;;;;;;40.58;21.52;;;-4.10;99.90;;;;;;5094942;28;20045;-68
2021/03/06 05:07:46;;;;;;;42.47;22.02;;;-4.10;99.90;;;;;;5095716;28;20098;-67
2021/03/06 05:10:12;;;;;;;40.83;23.17;;;-4.20;99.90;;;;;;5095130;28;20146;-68
2021/03/06 05:12:37;;;;;;;45.38;23.90;;;-4.20;99.90;;;;;;5096415;28;20028;-67
2021/03/06 05:15:04;;;;;;;46.95;25.20;;;-4.20;99.90;;;;;;5095344;28;20040;-68
2021/03/06 05:17:30;;;;;;;48.17;25.13;;;-4.20;99.90;;;;;;5095044;28;20055;-67
2021/03/06 05:19:56;;;;;;;42.83;23.83;;;-4.20;99.90;;;;;;5095134;28;20020;-68
2021/03/06 05:22:22;;;;;;;44.25;24.20;;;-4.20;99.90;;;;;;5094974;28;20490;-68
2021/03/06 05:24:48;;;;;;;51.08;25.02;;;-4.20;99.90;;;;;;5094234;28;20148;-68
2021/03/06 05:27:15;;;;;;;45.40;24.75;;;-4.20;99.90;;;;;;5094516;28;20020;-68
2021/03/06 05:29:40;;;;;;;43.28;24.63;;;-4.20;99.90;;;;;;5094691;28;20035;-67
2021/03/06 05:32:06;;;;;;;54.53;27.67;;;-4.20;99.90;;;;;;5094145;28;20023;-67
2021/03/06 05:34:33;;;;;;;51.72;26.63;;;-4.20;99.90;;;;;;5095579;28;20074;-68
2021/03/06 05:36:58;;;;;;;48.33;25.80;;;-4.30;99.90;;;;;;5094668;28;20020;-68
2021/03/06 05:39:25;;;;;;;52.17;27.23;;;-4.30;99.90;;;;;;5094593;28;20024;-68
2021/03/06 05:41:51;;;;;;;51.63;26.98;;;-4.30;99.90;;;;;;5094550;28;20012;-68
2021/03/06 05:44:17;;;;;;;56.13;27.48;;;-4.30;99.90;;;;;;5094477;28;20027;-68
2021/03/06 05:46:44;;;;;;;53.00;27.40;;;-4.30;99.90;;;;;;5094462;28;20020;-68
2021/03/06 05:49:11;;;;;;;53.85;26.77;;;-4.30;99.90;;;;;;5093689;28;20028;-68
2021/03/06 05:51:38;;;;;;;52.28;28.17;;;-4.30;99.90;;;;;;5094077;28;20024;-67
2021/03/06 05:54:10;;;;;;;53.78;28.17;;;-4.30;99.90;;;;;;5094374;28;20038;-68
2021/03/06 05:56:39;;;;;;;50.22;26.55;;;-4.30;99.90;;;;;;5094281;28;20031;-68
2021/03/06 05:59:07;;;;;;;53.47;26.90;;;-4.30;99.90;;;;;;5094268;28;20073;-67
2021/03/06 06:01:33;;;;;;;49.90;26.27;;;-4.30;99.90;;;;;;5093962;28;20063;-67
2021/03/06 06:04:00;;;;;;;45.28;24.63;;;-4.30;99.90;;;;;;5094206;28;20055;-68
2021/03/06 06:06:28;;;;;;;36.22;22.80;;;-4.30;99.90;;;;;;5094210;28;20020;-68
2021/03/06 06:08:57;;;;;;;40.47;22.60;;;-4.20;99.90;;;;;;5094138;28;20020;-68
2021/03/06 06:11:22;;;;;;;43.28;23.30;;;-4.20;99.90;;;;;;5094100;28;20023;-68
2021/03/06 06:13:48;;;;;;;39.92;23.50;;;-4.20;99.90;;;;;;5094116;28;20350;-68
2021/03/06 06:16:14;;;;;;;45.35;25.08;;;-4.10;99.90;;;;;;5093373;28;20477;-68
2021/03/06 06:18:40;;;;;;;48.88;24.67;;;-4.10;99.90;;;;;;5093805;28;20025;-68
2021/03/06 06:21:06;;;;;;;46.53;25.02;;;-4.00;99.90;;;;;;5094022;28;20039;-68
2021/03/06 06:23:32;;;;;;;50.03;24.60;;;-4.00;99.90;;;;;;5093666;28;20462;-68
2021/03/06 06:25:57;;;;;;;43.20;23.80;;;-4.00;99.90;;;;;;5093428;28;20031;-68
2021/03/06 06:28:23;;;;;;;48.88;23.05;;;-3.80;99.90;;;;;;5093435;28;20039;-68
2021/03/06 06:31:10;;;;;;;45.88;24.02;;;-3.50;99.90;;;;;;5093680;28;20043;-67
2021/03/06 06:33:36;;;;;;;43.05;21.55;;;-3.00;99.90;;;;;;5092125;28;20016;-68
2021/03/06 06:36:02;;;;;;;36.08;20.52;;;-2.60;99.90;;;;;;5092425;28;20025;-68
2021/03/06 06:38:41;;;;;;;43.42;20.73;;;-2.20;99.90;;;;;;5093672;28;20133;-68
2021/03/06 06:41:06;;;;;;;31.83;17.05;;;-1.60;99.90;;;;;;5093852;28;20023;-68
2021/03/06 06:43:32;;;;;;;29.05;16.38;;;-1.00;99.90;;;;;;5093522;28;20020;-68
2021/03/06 06:45:57;;;;;;;32.92;17.77;;;-0.30;99.90;;;;;;5093753;28;20060;-68
2021/03/06 06:48:23;;;;;;;28.10;16.70;;;0.50;99.90;;;;;;5093721;28;20024;-68
2021/03/06 06:50:48;;;;;;;25.60;15.40;;;1.50;99.90;;;;;;5093139;28;20032;-68
2021/03/06 06:53:29;;;;;;;29.13;15.23;;;2.10;99.90;;;;;;5093246;28;20028;-68
2021/03/06 06:55:54;;;;;;;33.50;16.05;;;2.90;99.90;;;;;;5093362;28;20032;-68
2021/03/06 06:58:33;;;;;;;29.00;16.52;;;3.30;99.90;;;;;;5092358;28;20518;-68
2021/03/06 07:00:58;;;;;;;33.92;18.42;;;3.70;99.90;;;;;;5093706;28;20024;-68
2021/03/06 07:03:24;;;;;;;30.98;18.02;;;3.70;99.90;;;;;;5096821;28;20027;-68
2021/03/06 07:05:49;;;;;;;28.02;17.48;;;4.10;99.90;;;;;;5097239;28;20035;-69
2021/03/06 07:08:23;;;;;;;28.95;18.75;;;4.30;99.90;;;;;;5096837;28;20165;-69
2021/03/06 07:10:49;;;;;;;28.90;17.90;;;4.70;99.90;;;;;;5096813;28;20027;-69
2021/03/06 07:13:15;;;;;;;29.75;18.30;;;5.40;99.90;;;;;;5097406;28;20506;-69
2021/03/06 07:15:42;;;;;;;28.10;17.60;;;5.70;99.90;;;;;;5096723;28;20044;-68
2021/03/06 07:18:16;;;;;;;29.00;16.92;;;5.20;99.90;;;;;;5097266;28;20019;-69
2021/03/06 07:20:42;;;;;;;29.67;17.55;;;4.80;99.90;;;;;;5097220;28;20017;-69
2021/03/06 07:23:24;;;;;;;25.95;15.95;;;5.10;99.90;;;;;;5097177;28;20071;-69
2021/03/06 07:25:51;;;;;;;33.05;16.25;;;5.80;99.90;;;;;;5097138;28;20052;-69
2021/03/06 07:28:17;;;;;;;22.77;15.57;;;5.90;99.90;;;;;;5097173;28;20027;-66
2021/03/06 07:30:42;;;;;;;27.67;15.70;;;6.20;99.90;;;;;;5096721;28;20107;-69
2021/03/06 07:33:13;;;;;;;23.60;15.52;;;6.30;99.90;;;;;;5096715;28;20036;-66
2021/03/06 07:35:40;;;;;;;27.77;15.73;;;6.30;99.90;;;;;;5095710;28;20031;-68
2021/03/06 07:38:09;;;;;;;23.67;15.50;;;5.80;99.90;;;;;;5096895;28;20103;-68
2021/03/06 07:40:41;;;;;;;27.95;16.50;;;4.90;99.90;;;;;;5096610;28;20043;-68
2021/03/06 07:43:12;;;;;;;24.25;14.18;;;5.70;99.90;;;;;;5096882;28;20066;-68
2021/03/06 07:45:42;;;;;;;23.80;14.90;;;6.60;99.90;;;;;;5096524;28;20464;-69
2021/03/06 07:48:14;;;;;;;22.65;14.57;;;6.40;99.90;;;;;;5096424;28;20080;-68
2021/03/06 07:50:43;;;;;;;27.60;15.80;;;6.10;99.90;;;;;;5096318;28;20460;-68
2021/03/06 07:53:10;;;;;;;31.77;16.05;;;5.90;99.90;;;;;;5096636;28;20056;-68
2021/03/06 07:55:36;;;;;;;27.40;16.17;;;6.20;99.90;;;;;;5096515;28;20107;-68
2021/03/06 08:00:49;;;;;;;31.92;17.60;;;6.60;99.90;;;;;;5112297;27;20351;-69
2021/03/06 08:06:28;;;;;;;28.13;16.50;;;6.20;99.90;;;;;;5091899;27;20349;-68
2021/03/06 08:08:55;;;;;;;29.85;15.20;;;6.10;99.90;;;;;;5091232;28;20457;-68
2021/03/06 08:11:23;;;;;;;31.90;16.23;;;6.40;99.90;;;;;;5091534;28;20020;-68
2021/03/06 08:13:53;;;;;;;25.70;15.80;;;7.40;99.90;;;;;;5091500;28;20020;-68
2021/03/06 08:21:53;;;;;;;31.02;17.42;;;7.90;99.90;;;;;;5110870;27;20386;-68
2021/03/06 08:24:22;;;;;;;25.48;17.50;;;8.10;99.90;;;;;;5110772;28;20028;-68
2021/03/06 08:29:42;;;;;;;25.70;17.58;;;7.90;99.90;;;;;;5112208;27;20343;-68
2021/03/06 08:32:13;;;;;;;23.83;15.75;;;7.20;99.90;;;;;;5111393;28;20024;-68
2021/03/06 08:34:44;;;;;;;23.45;15.07;;;7.70;99.90;;;;;;5111632;28;20065;-68
2021/03/06 08:39:57;;;;;;;23.00;14.15;;;8.40;99.90;;;;;;5112280;27;20347;-69
2021/03/06 08:42:29;;;;;;;21.98;13.90;;;8.20;99.90;;;;;;5111971;28;20036;-69
2021/03/06 08:44:58;;;;;;;21.85;13.65;;;8.60;99.90;;;;;;5111908;28;20107;-68
2021/03/06 08:47:27;;;;;;;22.02;13.50;;;9.50;99.90;;;;;;5110617;28;20084;-68
2021/03/06 08:49:56;;;;;;;19.70;13.20;;;9.20;99.90;;;;;;5111438;28;20016;-68
2021/03/06 08:52:23;;;;;;;19.73;11.85;;;9.30;99.90;;;;;;5111408;28;20020;-68
2021/03/06 08:54:49;;;;;;;23.08;11.07;;;9.90;99.90;;;;;;5111641;28;20448;-68
2021/03/06 08:57:31;;;;;;;17.08;12.27;;;10.40;99.00;;;;;;5111382;28;20103;-68
2021/03/06 08:59:59;;;;;;;16.17;10.85;;;10.30;98.40;;;;;;5110202;28;20051;-68
2021/03/06 09:02:28;;;;;;;19.80;10.35;;;10.30;98.40;;;;;;5109801;28;20118;-68
2021/03/06 09:05:16;;;;;;;18.35;12.88;;;11.20;91.30;;;;;;5109678;28;20480;-68
2021/03/06 09:07:45;;;;;;;18.23;11.95;;;9.50;96.50;;;;;;5110855;28;20070;-68
2021/03/06 09:10:36;;;;;;;18.73;12.23;;;9.00;99.90;;;;;;5093144;28;20110;-69
2021/03/06 09:13:06;;;;;;;20.33;13.00;;;8.50;99.90;;;;;;5111358;28;20364;-68
2021/03/06 09:15:43;;;;;;;22.67;12.60;;;8.10;99.90;;;;;;5111061;28;20146;-68
2021/03/06 09:18:12;;;;;;;23.45;13.02;;;7.90;99.90;;;;;;5111222;28;20020;-68
2021/03/06 09:20:42;;;;;;;23.27;12.30;;;8.20;99.90;;;;;;5110975;28;20020;-68
2021/03/06 09:23:08;;;;;;;21.95;13.07;;;7.80;99.90;;;;;;5110970;28;20020;-68
2021/03/06 09:25:40;;;;;;;23.95;12.93;;;7.90;99.90;;;;;;5111158;28;20350;-68
2021/03/06 09:28:11;;;;;;;24.25;12.93;;;8.20;99.90;;;;;;5110830;28;20016;-68
2021/03/06 09:30:40;;;;;;;21.23;11.75;;;8.80;99.90;;;;;;5109926;28;20069;-68
2021/03/06 09:33:30;;;;;;;21.27;11.20;;;10.40;99.90;;;;;;5109450;28;20024;-68
2021/03/06 09:36:02;;;;;;;23.70;12.07;;;11.30;95.90;;;;;;5110311;28;20358;-68
2021/03/06 09:38:27;;;;;;;21.08;11.70;;;11.00;95.50;;;;;;5108786;28;20083;-68
2021/03/06 09:40:54;;;;;;;18.80;10.68;;;11.20;95.00;;;;;;5110857;28;20405;-68
2021/03/06 09:43:29;;;;;;;17.60;9.90;;;11.70;93.20;;;;;;5110781;28;20464;-69
2021/03/06 09:45:57;;;;;;;15.82;8.45;;;12.00;91.20;;;;;;5109553;28;20028;-68
2021/03/06 09:48:23;;;;;;;13.43;7.85;;;12.10;87.80;;;;;;5109504;28;20032;-68
2021/03/06 09:50:54;;;;;;;14.30;7.32;;;12.90;77.50;;;;;;5098850;28;20047;-68
2021/03/06 09:53:22;;;;;;;18.45;7.90;;;13.00;75.00;;;;;;5096991;28;20024;-69
2021/03/06 09:55:47;;;;;;;10.93;7.32;;;13.70;72.00;;;;;;5096426;28;20031;-68
2021/03/06 09:58:23;;;;;;;12.57;6.45;;;13.00;74.10;;;;;;5096575;28;20028;-69
2021/03/06 10:00:50;;;;;;;11.57;4.90;;;12.60;78.90;;;;;;5096305;28;20020;-68
2021/03/06 10:03:33;;;;;;;11.73;5.85;;;13.90;63.30;;;;;;5096652;28;20026;-68
2021/03/06 10:06:01;;;;;;;12.57;3.80;;;12.60;72.50;;;;;;5095378;28;20020;-68
2021/03/06 10:08:29;;;;;;;13.60;5.55;;;13.90;59.20;;;;;;5096732;28;20047;-69
2021/03/06 10:10:56;;;;;;;11.25;4.93;;;14.30;56.60;;;;;;5095390;28;20440;-69
2021/03/06 10:13:22;;;;;;;10.77;5.68;;;13.70;55.80;;;;;;5096582;28;20342;-69
2021/03/06 10:15:48;;;;;;;7.60;4.43;;;13.80;58.10;;;;;;5096566;28;20106;-69
2021/03/06 10:18:13;;;;;;;9.18;4.72;;;13.70;56.10;;;;;;5096416;28;20078;-68
2021/03/06 10:20:39;;;;;;;8.45;4.57;;;13.10;57.90;;;;;;5096509;28;20411;-68
2021/03/06 10:23:05;;;;;;;10.38;4.10;;;12.00;68.90;;;;;;5096388;28;20467;-68
2021/03/06 10:25:31;;;;;;;12.13;4.25;;;12.90;65.00;;;;;;5095843;28;20055;-68
2021/03/06 10:28:06;;;;;;;11.10;4.45;;;13.00;60.60;;;;;;5096083;28;20027;-69
2021/03/06 10:30:38;;;;;;;9.85;4.10;;;14.20;59.50;;;;;;5095748;28;20024;-68
2021/03/06 10:33:17;;;;;;;10.77;4.60;;;15.90;50.30;;;;;;5095997;28;20024;-69
2021/03/06 10:35:46;;;;;;;7.72;3.88;;;15.20;52.60;;;;;;5096187;28;20028;-68
2021/03/06 10:41:00;;;;;;;8.40;3.90;;;15.60;49.30;;;;;;5110903;27;20382;-68
2021/03/06 10:43:44;;;;;;;7.32;2.97;;;15.60;48.00;;;;;;5111727;28;20365;-68
2021/03/06 10:46:20;;;;;;;7.35;3.08;;;15.60;48.10;;;;;;5111664;28;20028;-68
2021/03/06 10:49:04;;;;;;;6.38;2.47;;;14.40;49.20;;;;;;5111280;28;20039;-68
2021/03/06 10:51:52;;;;;;;4.18;2.65;;;14.20;49.00;;;;;;5111816;28;20102;-68
2021/03/06 10:54:20;;;;;;;7.80;3.22;;;13.20;54.10;;;;;;5111177;28;20068;-68
2021/03/06 10:56:46;;;;;;;7.35;2.35;;;11.50;56.10;;;;;;5111676;28;20027;-68
2021/03/06 10:59:12;;;;;;;4.63;2.55;;;12.60;57.10;;;;;;5111209;28;20032;-68
2021/03/06 11:01:53;;;;;;;5.60;2.63;;;12.40;54.30;;;;;;5111322;28;20142;-68
2021/03/06 11:04:36;;;;;;;4.85;2.33;;;10.30;61.00;;;;;;5111334;28;20020;-68
2021/03/06 11:07:06;;;;;;;4.90;2.50;;;11.00;65.00;;;;;;5111510;28;20057;-68
2021/03/06 11:09:36;;;;;;;4.50;2.60;;;12.80;55.50;;;;;;5110273;28;20369;-68
2021/03/06 11:12:23;;;;;;;4.75;2.63;;;13.30;53.80;;;;;;5111401;28;20520;-68
2021/03/06 11:15:15;;;;;;;7.25;2.33;;;13.50;54.90;;;;;;5110820;28;20469;-69
2021/03/06 11:17:42;;;;;;;6.65;2.90;;;14.20;51.90;;;;;;5111220;28;20027;-69
2021/03/06 11:20:10;;;;;;;6.50;2.53;;;13.40;54.40;;;;;;5111141;28;20024;-69
2021/03/06 11:22:36;;;;;;;8.93;2.90;;;13.00;53.80;;;;;;5109424;28;20062;-69
2021/03/06 11:25:04;;;;;;;5.13;2.55;;;12.90;51.60;;;;;;5109986;28;20066;-69
2021/03/06 11:27:41;;;;;;;7.80;2.47;;;12.00;57.20;;;;;;5111114;28;20069;-69
2021/03/06 11:30:07;;;;;;;4.18;2.53;;;11.30;57.40;;;;;;5111063;28;20024;-69
2021/03/06 11:32:33;;;;;;;3.50;2.20;;;10.80;61.00;;;;;;5110186;28;20035;-68
2021/03/06 11:34:58;;;;;;;5.70;2.45;;;10.30;62.80;;;;;;5110963;28;20023;-68
2021/03/06 11:37:24;;;;;;;4.50;2.15;;;9.70;67.70;;;;;;5110628;28;20020;-69
2021/03/06 11:39:49;;;;;;;6.25;3.30;;;9.90;71.60;;;;;;5109164;28;20493;-69
2021/03/06 11:42:15;;;;;;;6.38;2.50;;;9.50;75.60;;;;;;5110795;28;20035;-68
2021/03/06 11:44:40;;;;;;;8.25;2.65;;;9.30;77.60;;;;;;5110202;28;20039;-68
2021/03/06 11:47:06;;;;;;;4.20;2.42;;;9.00;84.70;;;;;;5108908;28;20031;-69
2021/03/06 11:49:31;;;;;;;7.32;3.20;;;8.90;93.20;;;;;;5110649;28;20369;-68
2021/03/06 11:51:57;;;;;;;7.68;3.08;;;9.30;88.10;;;;;;5099248;28;20072;-69
2021/03/06 11:54:22;;;;;;;4.47;2.47;;;9.10;92.30;;;;;;5096980;28;20039;-69
2021/03/06 11:56:48;;;;;;;5.20;2.72;;;9.10;90.40;;;;;;5096644;28;20078;-69
2021/03/06 11:59:14;;;;;;;6.18;3.47;;;8.80;91.90;;;;;;5096564;28;20027;-69
2021/03/06 12:01:40;;;;;;;6.10;3.13;;;8.80;92.60;;;;;;5096859;28;20401;-69
2021/03/06 12:04:05;;;;;;;7.57;3.10;;;9.20;90.90;;;;;;5095654;28;20020;-69
2021/03/06 12:06:31;;;;;;;7.55;3.33;;;9.00;92.20;;;;;;5078980;28;20058;-68
2021/03/06 12:08:56;;;;;;;7.70;3.20;;;9.20;91.80;;;;;;5096424;28;20099;-68
2021/03/06 12:11:22;;;;;;;8.32;3.20;;;9.00;92.10;;;;;;5096677;28;20461;-68
2021/03/06 12:13:47;;;;;;;5.55;3.25;;;8.40;95.30;;;;;;5096385;28;20032;-68
2021/03/06 12:16:13;;;;;;;6.30;2.95;;;8.10;95.10;;;;;;5095073;28;20032;-69
2021/03/06 12:18:38;;;;;;;5.50;2.90;;;8.30;94.50;;;;;;5096461;28;20024;-68
2021/03/06 12:21:04;;;;;;;5.88;3.42;;;8.30;94.90;;;;;;5096240;28;20029;-69
2021/03/06 12:23:29;;;;;;;5.88;3.58;;;8.00;96.80;;;;;;5094891;28;20047;-69
2021/03/06 12:25:55;;;;;;;5.38;3.72;;;8.50;97.00;;;;;;5096381;28;20529;-68
2021/03/06 12:28:21;;;;;;;7.20;3.40;;;8.50;95.40;;;;;;5094541;28;20028;-69
2021/03/06 12:30:46;;;;;;;4.53;3.10;;;8.60;95.70;;;;;;5096296;28;20028;-69
2021/03/06 12:33:12;;;;;;;6.25;3.15;;;8.60;96.50;;;;;;5096158;28;20099;-68
2021/03/06 12:35:37;;;;;;;6.70;3.30;;;8.50;98.20;;;;;;5094412;28;20048;-68
2021/03/06 12:38:03;;;;;;;7.63;3.65;;;8.30;96.50;;;;;;5096133;28;20024;-69
2021/03/06 12:40:28;;;;;;;9.00;4.20;;;8.60;96.90;;;;;;5095415;28;20101;-68
2021/03/06 12:42:54;;;;;;;6.30;3.42;;;8.50;94.20;;;;;;5095540;28;20020;-68
2021/03/06 12:45:19;;;;;;;4.93;3.63;;;8.50;95.40;;;;;;5095791;28;20028;-68
2021/03/06 12:47:45;;;;;;;7.65;3.70;;;8.20;96.30;;;;;;5095445;28;20020;-68
2021/03/06 12:50:11;;;;;;;10.23;4.10;;;7.90;99.90;;;;;;5095955;28;20028;-68
2021/03/06 12:52:36;;;;;;;7.10;3.92;;;7.60;99.10;;;;;;5095908;28;20024;-68
2021/03/06 12:55:04;;;;;;;6.30;3.95;;;7.60;99.90;;;;;;5077253;28;20488;-68
2021/03/06 12:57:29;;;;;;;6.03;3.70;;;8.00;99.90;;;;;;5095788;28;20016;-68
2021/03/06 12:59:56;;;;;;;11.13;3.88;;;8.10;99.90;;;;;;5095742;28;20034;-69
2021/03/06 13:02:21;;;;;;;6.35;3.72;;;8.20;99.90;;;;;;5076796;28;20024;-69
2021/03/06 13:04:47;;;;;;;8.93;3.47;;;8.30;99.90;;;;;;5095545;28;20476;-69